CMB810 Details

Departure: Ramstein Air Force Base (ETAR)
Arrival: Joint Base McGuire Dix Lakehurst (KWRI)
Notes: USTRANSCOM CONTRACT FLIGHT


Current Weather Information
ETAR 251056Z AUTO 36008KT 9999 BKN120 BKN190 20/08 A3001 RMK AO2 SLP163 T01970084 $
KWRI 251056Z AUTO 00000KT 5SM HZ CLR 13/11 A3021 RMK AO2 SLP229 T01330105 $